createdAt,value
2022-10-11T00:01:41.848Z,99645.16
2022-10-11T00:04:13.746Z,99643.54
2022-10-11T00:06:47.220Z,99640.47
2022-10-11T00:09:19.031Z,99642.25
2022-10-11T00:11:50.743Z,99641.80
2022-10-11T00:14:22.410Z,99638.20
2022-10-11T00:16:54.509Z,99637.23
2022-10-11T00:19:26.224Z,99634.89
2022-10-11T00:21:57.927Z,99639.31
2022-10-11T00:24:29.795Z,99635.98
2022-10-11T00:27:01.496Z,99634.92
2022-10-11T00:29:33.332Z,99633.33
2022-10-11T00:32:05.887Z,99633.27
2022-10-11T00:34:37.679Z,99638.56
2022-10-11T00:37:09.566Z,99637.77
2022-10-11T00:39:41.258Z,99634.27
2022-10-11T00:42:16.010Z,99634.84
2022-10-11T00:44:49.589Z,99625.52
2022-10-11T00:47:24.585Z,99623.00
2022-10-11T00:50:00.424Z,99623.08
2022-10-11T00:52:35.848Z,99621.09
2022-10-11T00:55:10.864Z,99618.44
2022-10-11T00:57:47.431Z,99612.48
2022-10-11T01:00:20.395Z,99613.09
2022-10-11T01:02:52.199Z,99618.89
2022-10-11T01:05:31.691Z,99618.35
2022-10-11T01:08:03.734Z,99617.04
2022-10-11T01:10:38.406Z,99617.70
2022-10-11T01:13:19.198Z,99611.38
2022-10-11T01:15:58.303Z,99613.23
2022-10-11T01:18:35.354Z,99610.30
2022-10-11T01:21:17.374Z,99609.45
2022-10-11T01:24:25.396Z,99606.52
2022-10-11T01:27:12.746Z,99612.83
2022-10-11T01:29:53.666Z,99606.19
2022-10-11T01:32:34.787Z,99605.28
2022-10-11T01:35:11.576Z,99606.14
2022-10-11T01:37:49.186Z,99604.49
2022-10-11T01:40:26.230Z,99608.81
2022-10-11T01:42:58.786Z,99606.35
2022-10-11T01:45:31.583Z,99608.86
2022-10-11T01:48:10.248Z,99608.08
2022-10-11T01:50:42.567Z,99607.02
2022-10-11T01:53:38.776Z,99610.33
2022-10-11T01:56:22.677Z,99607.20
2022-10-11T01:59:11.457Z,99610.13
2022-10-11T02:01:55.737Z,99612.11
2022-10-11T02:04:34.781Z,99609.11
2022-10-11T02:07:12.032Z,99607.07
2022-10-11T02:09:48.273Z,99611.39
2022-10-11T02:12:26.371Z,99608.31
2022-10-11T02:14:59.963Z,99607.54
2022-10-11T02:17:36.785Z,99601.27
2022-10-11T02:20:14.410Z,99601.75
2022-10-11T02:22:49.582Z,99607.42
2022-10-11T02:25:25.255Z,99609.17
2022-10-11T02:28:00.592Z,99606.42
2022-10-11T02:30:34.247Z,99601.58
2022-10-11T02:33:10.905Z,99603.27
2022-10-11T02:35:47.268Z,99603.89
2022-10-11T02:38:23.571Z,99606.63
2022-10-11T02:40:59.081Z,99605.90
2022-10-11T02:43:36.681Z,99607.55
2022-10-11T02:46:10.626Z,99606.54
2022-10-11T02:48:42.314Z,99612.52
2022-10-11T02:51:16.057Z,99614.41
2022-10-11T02:53:47.784Z,99612.16
2022-10-11T02:56:19.520Z,99615.81
2022-10-11T02:58:51.454Z,99615.65
2022-10-11T03:01:23.299Z,99615.74
2022-10-11T03:03:55.167Z,99613.34
2022-10-11T03:06:26.832Z,99615.95
2022-10-11T03:08:58.608Z,99618.52
2022-10-11T03:11:30.369Z,99621.62
2022-10-11T03:14:02.086Z,99619.98
2022-10-11T03:16:33.840Z,99621.69
2022-10-11T03:19:05.626Z,99617.68
2022-10-11T03:21:37.503Z,99618.23
2022-10-11T03:24:09.946Z,99620.14
2022-10-11T03:26:41.810Z,99619.34
2022-10-11T03:29:13.815Z,99622.23
2022-10-11T03:31:45.596Z,99624.02
2022-10-11T03:34:17.239Z,99625.84
2022-10-11T03:36:48.985Z,99627.80
2022-10-11T03:39:20.915Z,99629.73
2022-10-11T03:41:52.583Z,99629.96
2022-10-11T03:44:24.293Z,99632.19
2022-10-11T03:46:55.910Z,99635.61
2022-10-11T03:49:27.676Z,99633.51
2022-10-11T03:51:59.327Z,99637.36
2022-10-11T03:54:31.311Z,99637.69
2022-10-11T03:57:02.984Z,99637.87
2022-10-11T03:59:34.782Z,99632.94
2022-10-11T04:02:06.553Z,99633.05
2022-10-11T04:04:39.555Z,99635.73
2022-10-11T04:07:11.381Z,99635.58
2022-10-11T04:09:43.075Z,99635.53
2022-10-11T04:12:14.747Z,99634.73
2022-10-11T04:14:46.459Z,99633.98
2022-10-11T04:17:18.427Z,99635.65
2022-10-11T04:19:50.161Z,99638.60
2022-10-11T04:22:21.874Z,99632.04
2022-10-11T04:24:54.336Z,99638.94
2022-10-11T04:27:28.271Z,99639.05
2022-10-11T04:29:59.968Z,99643.17
2022-10-11T04:32:31.627Z,99645.39
2022-10-11T04:35:04.865Z,99640.27
2022-10-11T04:37:36.825Z,99640.89
2022-10-11T04:40:10.989Z,99642.87
2022-10-11T04:42:42.823Z,99646.86
2022-10-11T04:45:14.692Z,99649.44
2022-10-11T04:47:46.402Z,99652.55
2022-10-11T04:50:18.494Z,99657.29
2022-10-11T04:52:50.487Z,99658.96
2022-10-11T04:55:22.300Z,99665.77
2022-10-11T04:57:54.438Z,99667.38
2022-10-11T05:00:27.535Z,99671.55
2022-10-11T05:02:59.532Z,99674.15
2022-10-11T05:05:31.760Z,99671.35
2022-10-11T05:08:03.833Z,99673.30
2022-10-11T05:10:35.825Z,99674.88
2022-10-11T05:13:08.026Z,99680.00
2022-10-11T05:15:39.875Z,99681.29
2022-10-11T05:18:11.842Z,99682.61
2022-10-11T05:20:44.045Z,99684.85
2022-10-11T05:23:16.446Z,99683.77
2022-10-11T05:25:48.304Z,99685.98
2022-10-11T05:28:20.294Z,99687.12
2022-10-11T05:30:52.090Z,99687.16
2022-10-11T05:33:24.280Z,99688.47
2022-10-11T05:35:56.108Z,99690.40
2022-10-11T05:38:27.955Z,99691.41
2022-10-11T05:41:03.328Z,99700.08
2022-10-11T05:43:35.199Z,99698.80
2022-10-11T05:46:08.180Z,99702.08
2022-10-11T05:48:41.100Z,99703.65
2022-10-11T05:51:14.363Z,99705.74
2022-10-11T05:53:46.288Z,99707.41
2022-10-11T05:56:23.216Z,99710.85
2022-10-11T05:58:59.916Z,99710.06
2022-10-11T06:01:34.119Z,99714.73
2022-10-11T06:04:06.176Z,99718.82
2022-10-11T06:06:37.990Z,99724.13
2022-10-11T06:09:09.991Z,99730.96
2022-10-11T06:11:42.627Z,99734.87
2022-10-11T06:14:14.536Z,99737.36
2022-10-11T06:16:46.477Z,99739.86
2022-10-11T06:19:18.538Z,99742.55
2022-10-11T06:21:50.373Z,99744.04
2022-10-11T06:24:22.252Z,99745.16
2022-10-11T06:26:54.643Z,99743.65
2022-10-11T06:29:26.552Z,99750.72
2022-10-11T06:31:58.663Z,99748.81
2022-10-11T06:34:30.563Z,99750.41
2022-10-11T06:37:02.374Z,99749.36
2022-10-11T06:39:34.705Z,99757.95
2022-10-11T06:42:06.705Z,99754.42
2022-10-11T06:44:39.645Z,99755.82
2022-10-11T06:47:11.529Z,99758.23
2022-10-11T06:49:43.348Z,99762.74
2022-10-11T06:52:15.195Z,99763.40
2022-10-11T06:54:47.100Z,99767.20
2022-10-11T06:57:18.762Z,99762.33
2022-10-11T06:59:50.635Z,99763.98
2022-10-11T07:02:22.296Z,99769.52
2022-10-11T07:04:54.446Z,99768.75
2022-10-11T07:07:26.545Z,99773.27
2022-10-11T07:09:58.476Z,99775.52
2022-10-11T07:12:30.503Z,99775.46
2022-10-11T07:15:02.179Z,99779.11
2022-10-11T07:17:34.087Z,99780.48
2022-10-11T07:20:06.788Z,99781.14
2022-10-11T07:22:38.722Z,99782.98
2022-10-11T07:25:11.378Z,99784.92
2022-10-11T07:27:43.291Z,99777.30
2022-10-11T07:30:15.630Z,99781.15
2022-10-11T07:32:47.392Z,99782.41
2022-10-11T07:35:19.863Z,99781.75
2022-10-11T07:37:51.966Z,99782.14
2022-10-11T07:40:23.988Z,99784.60
2022-10-11T07:42:57.034Z,99785.61
2022-10-11T07:45:29.970Z,99789.59
2022-10-11T07:48:02.599Z,99789.30
2022-10-11T07:50:35.987Z,99787.70
2022-10-11T07:53:08.118Z,99788.91
2022-10-11T07:55:40.890Z,99791.10
2022-10-11T07:58:14.098Z,99793.88
2022-10-11T08:00:46.241Z,99797.02
2022-10-11T08:03:18.082Z,99797.31
2022-10-11T08:05:52.207Z,99795.31
2022-10-11T08:08:24.512Z,99799.99
2022-10-11T08:10:57.531Z,99799.48
2022-10-11T08:13:29.906Z,99800.56
2022-10-11T08:16:03.161Z,99804.27
2022-10-11T08:18:40.257Z,99809.60
2022-10-11T08:21:14.848Z,99812.70
2022-10-11T08:23:47.123Z,99814.44
2022-10-11T08:26:19.633Z,99817.90
2022-10-11T08:28:51.571Z,99820.73
2022-10-11T08:31:23.360Z,99823.00
2022-10-11T08:33:55.807Z,99818.33
2022-10-11T08:36:27.661Z,99817.98
2022-10-11T08:38:59.527Z,99817.64
2022-10-11T08:41:38.895Z,99820.15
2022-10-11T08:44:21.999Z,99823.56
2022-10-11T08:47:03.018Z,99825.39
2022-10-11T08:49:36.163Z,99821.55
2022-10-11T08:52:16.417Z,99824.38
2022-10-11T08:54:53.145Z,99824.77
2022-10-11T08:57:27.586Z,99826.70
2022-10-11T09:00:04.552Z,99830.88
2022-10-11T09:03:07.639Z,99827.79
2022-10-11T09:05:50.780Z,99828.41
2022-10-11T09:08:28.675Z,99829.39
2022-10-11T09:11:05.751Z,99824.50
2022-10-11T09:14:03.115Z,99830.23
2022-10-11T09:16:48.705Z,99829.60
2022-10-11T09:19:40.756Z,99830.73
2022-10-11T09:22:28.083Z,99833.49
2022-10-11T09:25:18.062Z,99840.11
2022-10-11T09:28:02.923Z,99838.07
2022-10-11T09:30:38.327Z,99838.29
2022-10-11T09:33:18.918Z,99837.05
2022-10-11T09:35:53.498Z,99836.18
2022-10-11T09:38:36.947Z,99841.23
2022-10-11T09:41:15.357Z,99840.60
2022-10-11T09:43:51.390Z,99840.31
2022-10-11T09:46:25.965Z,99844.34
2022-10-11T09:48:59.654Z,99842.80
2022-10-11T09:51:32.424Z,99842.42
2022-10-11T09:54:06.474Z,99839.95
2022-10-11T09:56:45.280Z,99846.09
2022-10-11T09:59:30.566Z,99850.05
2022-10-11T10:02:28.750Z,99848.96
2022-10-11T10:05:03.702Z,99847.27
2022-10-11T10:07:36.862Z,99847.98
2022-10-11T10:10:31.123Z,99852.11
2022-10-11T10:13:05.155Z,99849.94
2022-10-11T10:15:38.657Z,99854.05
2022-10-11T10:18:22.903Z,99849.18
2022-10-11T10:20:57.784Z,99848.96
2022-10-11T10:23:32.109Z,99846.61
2022-10-11T10:26:21.072Z,99844.79
2022-10-11T10:29:06.087Z,99845.72
2022-10-11T10:32:08.777Z,99844.68
2022-10-11T10:34:36.475Z,99849.27
2022-10-11T10:37:19.999Z,99847.09
2022-10-11T10:39:56.471Z,99849.48
2022-10-11T10:42:29.114Z,99848.73
2022-10-11T10:45:01.732Z,99840.94
2022-10-11T10:47:53.756Z,99836.91
2022-10-11T10:50:30.638Z,99840.06
2022-10-11T10:53:16.461Z,99839.37
2022-10-11T10:55:53.316Z,99836.52
2022-10-11T10:58:35.884Z,99833.31
2022-10-11T11:01:17.172Z,99838.64
2022-10-11T11:03:54.628Z,99837.42
2022-10-11T11:06:37.066Z,99837.39
2022-10-11T11:09:26.438Z,99836.68
2022-10-11T11:12:08.621Z,99838.29
2022-10-11T11:14:50.649Z,99836.64
2022-10-11T11:17:33.307Z,99832.45
2022-10-11T11:20:18.608Z,99832.89
2022-10-11T11:23:01.183Z,99833.20
2022-10-11T11:25:44.811Z,99831.59
2022-10-11T11:28:40.212Z,99830.02
2022-10-11T11:31:26.040Z,99828.79
2022-10-11T11:34:06.670Z,99828.17
2022-10-11T11:36:43.450Z,99829.26
2022-10-11T11:39:20.434Z,99830.10
2022-10-11T11:41:57.454Z,99830.80
2022-10-11T11:44:34.377Z,99831.89
2022-10-11T11:47:12.218Z,99830.98
2022-10-11T11:49:47.199Z,99834.16
2022-10-11T11:52:27.048Z,99833.23
2022-10-11T11:55:05.696Z,99832.86
2022-10-11T11:57:53.457Z,99831.34
2022-10-11T12:00:26.613Z,99832.88
2022-10-11T12:03:01.707Z,99834.27
2022-10-11T12:05:37.461Z,99827.48
2022-10-11T12:08:25.895Z,99830.98
2022-10-11T12:11:04.914Z,99831.65
2022-10-11T12:13:39.069Z,99835.59
2022-10-11T12:16:13.679Z,99834.05
2022-10-11T12:18:56.003Z,99839.33
2022-10-11T12:21:34.608Z,99833.52
2022-10-11T12:24:22.660Z,99834.69
2022-10-11T12:26:57.945Z,99828.27
2022-10-11T12:29:50.812Z,99831.60
2022-10-11T12:32:52.615Z,99832.52
2022-10-11T12:35:57.367Z,99828.18
2022-10-11T12:38:30.420Z,99827.32
2022-10-11T12:41:22.670Z,99826.68
2022-10-11T12:44:27.060Z,99825.73
2022-10-11T12:47:24.120Z,99821.61
2022-10-11T12:50:14.462Z,99828.61
2022-10-11T12:53:01.103Z,99836.64
2022-10-11T12:55:53.228Z,99837.71
2022-10-11T12:58:30.778Z,99847.52
2022-10-11T13:01:17.584Z,99846.73
2022-10-11T13:03:58.418Z,99844.91
2022-10-11T13:06:33.408Z,99842.21
2022-10-11T13:09:16.704Z,99847.39
2022-10-11T13:11:52.227Z,99851.54
2022-10-11T13:14:26.639Z,99850.67
2022-10-11T13:17:16.164Z,99849.40
2022-10-11T13:19:52.391Z,99848.05
2022-10-11T13:22:26.450Z,99850.08
2022-10-11T13:24:59.376Z,99852.79
2022-10-11T13:27:31.278Z,99854.25
2022-10-11T13:30:08.609Z,99855.69
2022-10-11T13:32:40.518Z,99852.86
2022-10-11T13:35:23.934Z,99853.13
2022-10-11T13:37:57.820Z,99849.55
2022-10-11T13:40:30.625Z,99850.92
2022-10-11T13:43:05.300Z,99849.89
2022-10-11T13:45:39.290Z,99847.89
2022-10-11T13:48:16.860Z,99851.02
2022-10-11T13:51:08.068Z,99849.73
2022-10-11T13:53:57.352Z,99853.55
2022-10-11T13:56:31.074Z,99853.21
2022-10-11T13:59:04.046Z,99856.80
2022-10-11T14:01:41.991Z,99860.61
2022-10-11T14:04:15.557Z,99861.93
2022-10-11T14:06:54.738Z,99860.30
2022-10-11T14:09:31.687Z,99863.65
2022-10-11T14:12:30.387Z,99861.98
2022-10-11T14:15:04.220Z,99858.90
2022-10-11T14:17:42.135Z,99860.78
2022-10-11T14:20:22.826Z,99859.80
2022-10-11T14:22:55.178Z,99863.50
2022-10-11T14:25:28.439Z,99860.90
2022-10-11T14:28:01.388Z,99857.96
2022-10-11T14:30:33.159Z,99857.32
2022-10-11T14:33:06.517Z,99861.61
2022-10-11T14:35:38.812Z,99863.58
2022-10-11T14:38:13.001Z,99863.70
2022-10-11T14:40:45.048Z,99868.22
2022-10-11T14:43:16.881Z,99870.57
2022-10-11T14:45:50.055Z,99872.08
2022-10-11T14:48:42.991Z,99871.95
2022-10-11T14:51:17.191Z,99869.55
2022-10-11T14:53:48.947Z,99868.65
2022-10-11T14:56:21.784Z,99867.61
2022-10-11T14:58:53.810Z,99870.77
2022-10-11T15:01:26.528Z,99868.02
2022-10-11T15:03:58.370Z,99869.86
2022-10-11T15:06:34.051Z,99868.15
2022-10-11T15:09:06.375Z,99870.30
2022-10-11T15:11:39.064Z,99874.40
2022-10-11T15:14:10.927Z,99872.96
2022-10-11T15:16:42.676Z,99872.81
2022-10-11T15:19:17.593Z,99878.23
2022-10-11T15:21:49.871Z,99877.73
2022-10-11T15:24:21.697Z,99879.64
2022-10-11T15:26:53.499Z,99881.73
2022-10-11T15:29:25.868Z,99885.41
2022-10-11T15:31:58.113Z,99888.53
2022-10-11T15:34:30.096Z,99893.82
2022-10-11T15:37:01.910Z,99897.31
2022-10-11T15:39:33.990Z,99897.61
2022-10-11T15:42:08.148Z,99899.88
2022-10-11T15:44:40.452Z,99900.33
2022-10-11T15:47:12.512Z,99902.02
2022-10-11T15:49:44.313Z,99906.41
2022-10-11T15:52:15.965Z,99908.66
2022-10-11T15:54:47.683Z,99914.06
2022-10-11T15:57:19.376Z,99920.11
2022-10-11T15:59:51.097Z,99923.70
2022-10-11T16:02:22.902Z,99929.63
2022-10-11T16:04:55.527Z,99933.95
2022-10-11T16:07:29.076Z,99939.12
2022-10-11T16:10:00.850Z,99943.77
2022-10-11T16:12:33.845Z,99942.97
2022-10-11T16:15:06.338Z,99948.13
2022-10-11T16:17:38.461Z,99951.67
2022-10-11T16:20:11.293Z,99959.48
2022-10-11T16:22:43.457Z,99961.98
2022-10-11T16:25:15.737Z,99967.16
2022-10-11T16:27:48.381Z,99969.84
2022-10-11T16:30:21.409Z,99970.92
2022-10-11T16:32:53.616Z,99973.61
2022-10-11T16:35:30.172Z,99976.09
2022-10-11T16:38:05.173Z,99981.58
2022-10-11T16:40:37.962Z,99986.16
2022-10-11T16:43:10.405Z,99985.48
2022-10-11T16:45:42.181Z,99988.66
2022-10-11T16:48:13.928Z,99990.79
2022-10-11T16:50:46.030Z,99990.63
2022-10-11T16:53:21.708Z,99994.69
2022-10-11T16:55:54.042Z,100001.20
2022-10-11T16:58:25.818Z,100002.96
2022-10-11T17:00:57.741Z,100003.86
2022-10-11T17:03:29.559Z,100006.86
2022-10-11T17:06:01.353Z,100006.15
2022-10-11T17:08:33.347Z,100007.21
2022-10-11T17:11:06.256Z,100007.72
2022-10-11T17:13:37.991Z,100012.27
2022-10-11T17:16:10.512Z,100015.61
2022-10-11T17:18:42.619Z,100018.06
2022-10-11T17:21:17.336Z,100018.75
2022-10-11T17:23:49.563Z,100016.98
2022-10-11T17:26:24.963Z,100018.58
2022-10-11T17:28:57.893Z,100018.91
2022-10-11T17:31:30.988Z,100024.88
2022-10-11T17:34:03.300Z,100031.20
2022-10-11T17:36:35.743Z,100031.19
2022-10-11T17:39:10.137Z,100032.05
2022-10-11T17:41:42.037Z,100033.27
2022-10-11T17:44:17.386Z,100034.64
2022-10-11T17:46:49.684Z,100036.91
2022-10-11T17:49:21.521Z,100040.73
2022-10-11T17:51:53.386Z,100040.20
2022-10-11T17:54:25.410Z,100043.85
2022-10-11T17:56:58.333Z,100048.92
2022-10-11T17:59:32.260Z,100050.68
2022-10-11T18:02:04.221Z,100049.80
2022-10-11T18:04:35.940Z,100055.08
2022-10-11T18:07:07.727Z,100057.87
2022-10-11T18:09:41.805Z,100060.67
2022-10-11T18:12:13.539Z,100062.05
2022-10-11T18:14:45.510Z,100062.19
2022-10-11T18:17:17.278Z,100061.95
2022-10-11T18:19:49.094Z,100063.83
2022-10-11T18:22:21.507Z,100065.70
2022-10-11T18:24:53.514Z,100067.24
2022-10-11T18:27:25.202Z,100070.72
2022-10-11T18:29:57.585Z,100074.35
2022-10-11T18:32:29.278Z,100074.85
2022-10-11T18:35:01.016Z,100076.52
2022-10-11T18:37:33.607Z,100083.63
2022-10-11T18:40:05.773Z,100088.23
2022-10-11T18:42:37.567Z,100087.79
2022-10-11T18:45:11.564Z,100092.65
2022-10-11T18:47:43.377Z,100094.20
2022-10-11T18:50:15.337Z,100094.34
2022-10-11T18:52:48.624Z,100094.17
2022-10-11T18:55:20.732Z,100099.79
2022-10-11T18:57:52.566Z,100101.54
2022-10-11T19:00:40.136Z,100103.67
2022-10-11T19:03:13.178Z,100106.89
2022-10-11T19:05:44.845Z,100105.89
2022-10-11T19:08:16.618Z,100104.48
2022-10-11T19:10:48.809Z,100105.17
2022-10-11T19:13:20.890Z,100105.83
2022-10-11T19:15:52.636Z,100108.39
2022-10-11T19:18:25.606Z,100107.16
2022-10-11T19:20:57.366Z,100111.89
2022-10-11T19:23:32.264Z,100112.77
2022-10-11T19:26:04.540Z,100111.55
2022-10-11T19:28:36.830Z,100116.23
2022-10-11T19:31:11.159Z,100118.16
2022-10-11T19:33:42.965Z,100117.97
2022-10-11T19:36:15.815Z,100116.69
2022-10-11T19:38:50.140Z,100122.45
2022-10-11T19:41:22.500Z,100121.19
2022-10-11T19:43:54.774Z,100125.28
2022-10-11T19:49:22.770Z,100123.93
2022-10-11T19:51:55.988Z,100127.96
2022-10-11T19:54:27.925Z,100128.67
2022-10-11T19:56:59.645Z,100129.98
2022-10-11T19:59:31.371Z,100130.16
2022-10-11T20:02:03.100Z,100131.89
2022-10-11T20:04:51.542Z,100132.79
2022-10-11T20:07:24.133Z,100134.19
2022-10-11T20:09:55.829Z,100137.87
2022-10-11T20:12:29.383Z,100138.20
2022-10-11T20:15:01.586Z,100139.54
2022-10-11T20:17:47.206Z,100140.52
2022-10-11T20:20:20.087Z,100140.77
2022-10-11T20:22:53.693Z,100143.62
2022-10-11T20:25:25.779Z,100142.67
2022-10-11T20:27:57.452Z,100142.78
2022-10-11T20:30:29.160Z,100141.04
2022-10-11T20:33:01.069Z,100143.58
2022-10-11T20:35:32.897Z,100144.59
2022-10-11T20:38:07.779Z,100147.02
2022-10-11T20:40:42.302Z,100145.33
2022-10-11T20:43:14.935Z,100140.63
2022-10-11T20:45:47.413Z,100142.81
2022-10-11T20:48:19.184Z,100140.61
2022-10-11T20:50:51.277Z,100141.61
2022-10-11T20:53:23.063Z,100143.32
2022-10-11T20:55:55.052Z,100141.86
2022-10-11T20:58:26.867Z,100140.65
2022-10-11T21:01:00.015Z,100140.00
2022-10-11T21:03:31.909Z,100137.61
2022-10-11T21:06:03.660Z,100144.77
2022-10-11T21:08:36.084Z,100146.63
2022-10-11T21:11:09.053Z,100148.27
2022-10-11T21:13:41.249Z,100155.30
2022-10-11T21:16:15.586Z,100152.44
2022-10-11T21:18:50.937Z,100154.57
2022-10-11T21:21:23.975Z,100155.53
2022-10-11T21:23:57.729Z,100156.13
2022-10-11T21:26:30.250Z,100156.12
2022-10-11T21:29:04.632Z,100158.05
2022-10-11T21:31:36.842Z,100157.70
2022-10-11T21:34:08.971Z,100160.04
2022-10-11T21:36:40.915Z,100161.63
2022-10-11T21:39:12.641Z,100161.83
2022-10-11T21:41:44.341Z,100163.30
2022-10-11T21:44:16.065Z,100166.42
2022-10-11T21:47:06.039Z,100162.25
2022-10-11T21:49:38.997Z,100162.27
2022-10-11T21:52:11.555Z,100162.98
2022-10-11T21:54:43.265Z,100165.41
2022-10-11T21:57:15.140Z,100167.28
2022-10-11T21:59:46.849Z,100168.25
2022-10-11T22:02:18.521Z,100166.98
2022-10-11T22:04:50.194Z,100170.86
2022-10-11T22:07:21.895Z,100170.25
2022-10-11T22:09:53.690Z,100169.71
2022-10-11T22:12:25.632Z,100165.95
2022-10-11T22:14:57.354Z,100171.31
2022-10-11T22:17:29.062Z,100171.21
2022-10-11T22:20:00.797Z,100174.44
2022-10-11T22:22:32.695Z,100172.80
2022-10-11T22:25:05.294Z,100174.33
2022-10-11T22:27:37.051Z,100175.94
2022-10-11T22:30:12.146Z,100177.33
2022-10-11T22:32:43.908Z,100177.55
2022-10-11T22:35:15.580Z,100181.77
2022-10-11T22:37:47.260Z,100178.11
2022-10-11T22:40:19.455Z,100175.98
2022-10-11T22:42:51.323Z,100176.44
2022-10-11T22:45:23.548Z,100175.84
2022-10-11T22:47:55.379Z,100177.41
2022-10-11T22:50:27.071Z,100177.79
2022-10-11T22:52:58.813Z,100173.15
2022-10-11T22:55:30.642Z,100177.30
2022-10-11T22:58:02.710Z,100176.05
2022-10-11T23:00:34.996Z,100181.45
2022-10-11T23:03:07.217Z,100176.60
2022-10-11T23:05:38.935Z,100174.38
2022-10-11T23:08:11.064Z,100172.79
2022-10-11T23:10:42.777Z,100173.75
2022-10-11T23:13:14.399Z,100181.28
2022-10-11T23:15:46.554Z,100183.03
2022-10-11T23:18:19.393Z,100182.98
2022-10-11T23:20:51.085Z,100183.43
2022-10-11T23:23:22.764Z,100187.40
2022-10-11T23:26:04.859Z,100192.11
2022-10-11T23:28:36.691Z,100193.91
2022-10-11T23:31:13.582Z,100191.59
2022-10-11T23:33:45.571Z,100192.08
2022-10-11T23:36:18.958Z,100193.96
2022-10-11T23:38:55.247Z,100195.16
2022-10-11T23:41:29.099Z,100199.61
2022-10-11T23:44:00.807Z,100197.95
2022-10-11T23:46:32.564Z,100198.38
2022-10-11T23:49:04.564Z,100202.00
2022-10-11T23:51:36.404Z,100207.64
2022-10-11T23:54:08.522Z,100204.16
2022-10-11T23:56:40.543Z,100204.88
2022-10-11T23:59:12.286Z,100200.75
